Ty Lotus — DSNU7 — position and weather

sailwx.info

Track history (hours):
 
Tides and Currents Weather Stations Pressure Air Temp Water Temp Dewpoint Dewpoint Depression Visibility Wind Speed Wind Dir Waves Ship Positions

Ty Lotus

Last reported at 2017-May-25 17:29 UTC. Time now 2017-May-29 11:25 UTC.
Position N 32°49' E 122°40'.

Length 80 m; draft 6.2 m.

Type: Cargo ship. MMSI: 440324000.

Date/timePositionNaut miles runAvg speedWind from/ knotsBaromVisibWave heightAir tempDewpointWater temp
2017-May-25 17:29N 32°49' E 122°40'510.3
2017-May-25 16:57N 32°44' E 122°40'510.4
2017-May-25 16:28N 32°39' E 122°39'510.1
2017-May-25 16:00N 32°34' E 122°38'32 9.2
2017-May-25 12:32N 32°02' E 122°33'2 8.6
2017-May-25 12:15N 31°60' E 122°33'3 8.3
2017-May-25 11:55N 31°57' E 122°32'3 8.1
2017-May-25 11:30N 31°54' E 122°32'4 7.6
2017-May-25 10:55N 31°49' E 122°33'3 7.1
2017-May-25 10:30N 31°46' E 122°34'4 6.9
2017-May-25 10:00N 31°43' E 122°34'4 7.0
2017-May-25 09:30N 31°40' E 122°35'4 7.0
2017-May-25 09:00N 31°36' E 122°35'3 6.8
2017-May-25 08:30N 31°33' E 122°35'3 6.7
2017-May-25 08:00N 31°29' E 122°34'4 6.9
2017-May-25 07:25N 31°25' E 122°34'3 7.2
2017-May-25 06:58N 31°22' E 122°33'4 7.5
2017-May-25 06:27N 31°18' E 122°33'4 7.8
2017-May-25 05:59N 31°15' E 122°33'4 8.1
2017-May-25 05:29N 31°11' E 122°33'21 5.9
2017-May-25 01:58N 31°03' E 122°10'3 7.0
2017-May-25 01:29N 31°03' E 122°06'3 6.5
2017-May-25 01:00N 31°04' E 122°03'3 6.1
2017-May-25 00:30N 31°05' E 121°60'3 6.3
2017-May-25 00:00N 31°07' E 121°56'4 7.9
2017-May-24 23:30N 31°09' E 121°53'510.9
2017-May-24 23:00N 31°13' E 121°48'612.1
2017-May-24 22:30N 31°18' E 121°44'611.6
2017-May-24 22:00N 31°21' E 121°38'611.8
2017-May-24 21:30N 31°24' E 121°32'510.9
2017-May-24 21:00N 31°28' E 121°27'611.5
2017-May-24 20:30N 31°31' E 121°22'510.8
2017-May-24 20:00N 31°35' E 121°18'4 8.7
2017-May-24 19:30N 31°39' E 121°15'0 0.1
2017-May-24 18:50N 31°39' E 121°15'0 0.1
2017-May-24 18:26N 31°39' E 121°15'0 0.1
2017-May-24 17:47N 31°39' E 121°15'0 0.0
2017-May-24 17:29N 31°39' E 121°15'0 0.0
2017-May-24 16:59N 31°39' E 121°15'0 0.2
2017-May-24 16:30N 31°39' E 121°15'3 5.2
2017-May-24 16:00N 31°40' E 121°12'3 6.7
2017-May-24 15:30N 31°42' E 121°09'  
2017-May-21 10:16N 31°01' E 122°19'1 3.0
2017-May-21 09:56N 31°02' E 122°19'510.0
2017-May-21 09:26N 31°01' E 122°25'13 0.3
2017-May-19 18:55N 31°13' E 122°31'34 8.4
2017-May-19 14:49N 31°48' E 122°30'7 8.4
2017-May-19 14:00N 31°55' E 122°30'11 8.7
2017-May-19 12:44N 32°05' E 122°28'10 8.5
2017-May-19 11:34N 32°15' E 122°27'1 8.6
2017-May-19 11:30N 32°16' E 122°27'5 8.7
2017-May-19 10:57N 32°21' E 122°26'4 8.7
2017-May-19 10:30N 32°25' E 122°26'19 8.7
2017-May-19 08:18N 32°43' E 122°21'87 8.3
2017-May-18 21:46N 33°42' E 121°04'3 9.2
2017-May-18 21:28N 33°42' E 121°01'89 2.0
2017-May-17 00:00N 33°50' E 122°47'9 8.6
2017-May-16 22:56N 33°51' E 122°58'  
Track history (hours):
 
Tides and Currents Weather Stations Pressure Air Temp Water Temp Dewpoint Dewpoint Depression Visibility Wind Speed Wind Dir Waves Ship Positions

Ty Lotus

Last reported at 2017-May-25 17:29 UTC. Time now 2017-May-29 11:25 UTC.
Position N 32°49' E 122°40'.

Length 80 m; draft 6.2 m.

Type: Cargo ship. MMSI: 440324000.

Date/timePositionNaut miles runAvg speedWind from/ knotsBaromVisibWave heightAir tempDewpointWater temp
2017-May-25 17:29N 32°49' E 122°40'510.3
2017-May-25 16:57N 32°44' E 122°40'510.4
2017-May-25 16:28N 32°39' E 122°39'510.1
2017-May-25 16:00N 32°34' E 122°38'32 9.2
2017-May-25 12:32N 32°02' E 122°33'2 8.6
2017-May-25 12:15N 31°60' E 122°33'3 8.3
2017-May-25 11:55N 31°57' E 122°32'3 8.1
2017-May-25 11:30N 31°54' E 122°32'4 7.6
2017-May-25 10:55N 31°49' E 122°33'3 7.1
2017-May-25 10:30N 31°46' E 122°34'4 6.9
2017-May-25 10:00N 31°43' E 122°34'4 7.0
2017-May-25 09:30N 31°40' E 122°35'4 7.0
2017-May-25 09:00N 31°36' E 122°35'3 6.8
2017-May-25 08:30N 31°33' E 122°35'3 6.7
2017-May-25 08:00N 31°29' E 122°34'4 6.9
2017-May-25 07:25N 31°25' E 122°34'3 7.2
2017-May-25 06:58N 31°22' E 122°33'4 7.5
2017-May-25 06:27N 31°18' E 122°33'4 7.8
2017-May-25 05:59N 31°15' E 122°33'4 8.1
2017-May-25 05:29N 31°11' E 122°33'21 5.9
2017-May-25 01:58N 31°03' E 122°10'3 7.0
2017-May-25 01:29N 31°03' E 122°06'3 6.5
2017-May-25 01:00N 31°04' E 122°03'3 6.1
2017-May-25 00:30N 31°05' E 121°60'3 6.3
2017-May-25 00:00N 31°07' E 121°56'4 7.9
2017-May-24 23:30N 31°09' E 121°53'510.9
2017-May-24 23:00N 31°13' E 121°48'612.1
2017-May-24 22:30N 31°18' E 121°44'611.6
2017-May-24 22:00N 31°21' E 121°38'611.8
2017-May-24 21:30N 31°24' E 121°32'510.9
2017-May-24 21:00N 31°28' E 121°27'611.5
2017-May-24 20:30N 31°31' E 121°22'510.8
2017-May-24 20:00N 31°35' E 121°18'4 8.7
2017-May-24 19:30N 31°39' E 121°15'0 0.1
2017-May-24 18:50N 31°39' E 121°15'0 0.1
2017-May-24 18:26N 31°39' E 121°15'0 0.1
2017-May-24 17:47N 31°39' E 121°15'0 0.0
2017-May-24 17:29N 31°39' E 121°15'0 0.0
2017-May-24 16:59N 31°39' E 121°15'0 0.2
2017-May-24 16:30N 31°39' E 121°15'3 5.2
2017-May-24 16:00N 31°40' E 121°12'3 6.7
2017-May-24 15:30N 31°42' E 121°09'  
2017-May-21 10:16N 31°01' E 122°19'1 3.0
2017-May-21 09:56N 31°02' E 122°19'510.0
2017-May-21 09:26N 31°01' E 122°25'13 0.3
2017-May-19 18:55N 31°13' E 122°31'34 8.4
2017-May-19 14:49N 31°48' E 122°30'7 8.4
2017-May-19 14:00N 31°55' E 122°30'11 8.7
2017-May-19 12:44N 32°05' E 122°28'10 8.5
2017-May-19 11:34N 32°15' E 122°27'1 8.6
2017-May-19 11:30N 32°16' E 122°27'5 8.7
2017-May-19 10:57N 32°21' E 122°26'4 8.7
2017-May-19 10:30N 32°25' E 122°26'19 8.7
2017-May-19 08:18N 32°43' E 122°21'87 8.3
2017-May-18 21:46N 33°42' E 121°04'3 9.2
2017-May-18 21:28N 33°42' E 121°01'89 2.0
2017-May-17 00:00N 33°50' E 122°47'9 8.6
2017-May-16 22:56N 33°51' E 122°58'  

Dump ship's entire track history